Time;durP1;ratioP1;P1;durP2;ratioP2;P2;SDS_P1;SDS_P2;PMS_P1;PMS_P2;Temp;Humidity;BMP_temperature;BMP_pressure;BME280_temperature;BME280_humidity;BME280_pressure;Samples;Min_cycle;Max_cycle;Signal;HPM_P1;HPM_P2
2023/12/29 00:01:52;;;;;;;3.33;2.50;;;;;;;10.97;94.91;98211.38;4123626;28;20615;-90
2023/12/29 00:03:57;;;;;;;3.80;2.70;;;;;;;11.01;95.50;98205.03;4105895;28;20656;-92
2023/12/29 00:06:17;;;;;;;4.87;2.43;;;;;;;10.99;94.72;98201.66;4107313;28;21048;-90
2023/12/29 00:08:21;;;;;;;3.87;2.93;;;;;;;11.01;94.59;98205.84;4108578;28;20624;-88
2023/12/29 00:10:26;;;;;;;3.07;2.40;;;;;;;10.98;94.32;98202.63;4109470;28;21037;-90
2023/12/29 00:14:55;;;;;;;5.87;2.73;;;;;;;11.01;95.01;98191.97;4109140;28;20723;-91
2023/12/29 00:17:02;;;;;;;3.83;2.33;;;;;;;11.01;95.13;98198.03;4112313;28;20640;-90
2023/12/29 00:19:08;;;;;;;3.70;2.80;;;;;;;11.02;93.68;98198.84;4110248;28;20759;-90
2023/12/29 00:21:21;;;;;;;4.10;2.87;;;;;;;11.01;93.61;98195.41;4109377;28;20660;-90
2023/12/29 00:23:25;;;;;;;4.50;3.13;;;;;;;11.01;94.21;98189.38;4104571;28;20641;-92
2023/12/29 00:25:47;;;;;;;3.30;2.53;;;;;;;10.99;94.11;98189.47;4105630;28;20647;-90
2023/12/29 00:27:54;;;;;;;3.47;2.77;;;;;;;10.95;94.08;98184.56;4121112;28;20669;-91
2023/12/29 00:30:02;;;;;;;3.50;2.70;;;;;;;10.95;93.45;98190.63;4112273;28;20635;-89
2023/12/29 00:32:12;;;;;;;4.10;2.67;;;;;;;10.96;93.62;98178.38;4099771;28;20628;-89
2023/12/29 00:34:17;;;;;;;4.50;3.17;;;;;;;10.91;94.51;98183.91;4092625;28;21182;-90
2023/12/29 00:36:21;;;;;;;4.73;3.00;;;;;;;10.89;93.44;98184.97;4108439;28;21093;-88
2023/12/29 00:38:45;;;;;;;6.50;3.30;;;;;;;10.85;94.75;98184.38;4108395;28;20703;-89
2023/12/29 00:40:55;;;;;;;4.10;2.63;;;;;;;10.86;94.07;98170.38;4108308;28;20771;-91
2023/12/29 00:43:02;;;;;;;4.73;2.87;;;;;;;10.86;93.70;98179.97;4093068;28;20756;-91
2023/12/29 00:45:15;;;;;;;4.70;2.90;;;;;;;10.84;93.61;98174.03;4121912;28;20635;-90
2023/12/29 00:47:23;;;;;;;3.87;2.80;;;;;;;10.83;93.31;98172.34;4123526;28;20643;-90
2023/12/29 00:49:28;;;;;;;3.80;2.90;;;;;;;10.89;93.17;98174.53;4105770;28;20623;-90
2023/12/29 00:51:45;;;;;;;6.23;2.80;;;;;;;10.91;93.94;98176.09;4103465;28;20639;-83
2023/12/29 00:53:51;;;;;;;3.80;3.00;;;;;;;10.94;94.75;98183.72;4124425;28;21037;-82
2023/12/29 00:56:03;;;;;;;4.30;3.13;;;;;;;11.00;93.44;98179.84;4122828;28;21214;-83
2023/12/29 00:58:11;;;;;;;3.50;2.90;;;;;;;11.01;93.44;98179.75;4104720;28;20642;-83
2023/12/29 01:00:17;;;;;;;3.23;2.83;;;;;;;11.03;93.22;98185.69;4103590;28;20673;-83
2023/12/29 01:02:29;;;;;;;3.80;3.00;;;;;;;11.04;93.07;98184.75;4108409;28;20644;-82
2023/12/29 01:04:34;;;;;;;5.03;3.30;;;;;;;11.03;92.50;98188.31;4111498;28;20744;-84
2023/12/29 01:06:48;;;;;;;4.20;3.10;;;;;;;11.05;93.94;98189.06;4093655;28;20648;-82
2023/12/29 01:08:52;;;;;;;4.60;3.07;;;;;;;11.07;92.36;98199.38;4108171;28;20800;-83
2023/12/29 01:11:00;;;;;;;4.50;3.33;;;;;;;11.12;94.08;98198.13;4108739;28;20643;-83
2023/12/29 01:13:13;;;;;;;3.53;2.83;;;;;;;11.15;93.34;98204.91;4105331;28;20639;-82
2023/12/29 01:15:19;;;;;;;3.47;2.90;;;;;;;11.15;93.64;98208.34;4108175;28;20621;-82
2023/12/29 01:17:27;;;;;;;5.00;3.60;;;;;;;11.19;93.30;98204.59;4107932;28;20623;-84
2023/12/29 01:19:30;;;;;;;4.40;3.40;;;;;;;11.24;93.39;98202.50;4104352;28;20665;-82
2023/12/29 01:21:40;;;;;;;4.53;3.00;;;;;;;11.27;94.03;98199.66;4108289;28;21054;-83
2023/12/29 01:23:44;;;;;;;3.83;3.33;;;;;;;11.30;94.31;98204.69;4101637;28;21223;-82
2023/12/29 01:25:49;;;;;;;6.03;3.17;;;;;;;11.29;91.80;98205.66;4109282;28;20660;-83
2023/12/29 01:27:53;;;;;;;5.80;3.13;;;;;;;11.32;93.88;98190.59;4110213;28;20999;-82
2023/12/29 01:30:00;;;;;;;4.30;3.63;;;;;;;11.35;91.83;98195.59;4111620;28;20703;-83
2023/12/29 01:32:10;;;;;;;4.30;3.40;;;;;;;11.37;93.82;98187.66;4105731;28;21196;-82
2023/12/29 01:34:17;;;;;;;4.93;3.70;;;;;;;11.35;92.05;98186.91;4092021;28;20637;-82
2023/12/29 01:36:21;;;;;;;4.30;3.43;;;;;;;11.36;93.49;98185.97;4104221;28;20636;-83
2023/12/29 01:38:34;;;;;;;3.83;3.37;;;;;;;11.35;92.07;98190.38;4106956;28;20631;-83
2023/12/29 01:40:44;;;;;;;4.70;3.30;;;;;;;11.36;91.93;98188.59;4094459;28;21116;-82
2023/12/29 01:42:50;;;;;;;4.17;3.30;;;;;;;11.34;90.84;98185.25;4108756;28;20675;-83
2023/12/29 01:44:54;;;;;;;6.20;3.40;;;;;;;11.30;92.73;98186.41;4107363;28;20652;-82
2023/12/29 01:47:05;;;;;;;5.10;3.60;;;;;;;11.27;92.11;98181.41;4108428;28;20671;-82
2023/12/29 01:49:08;;;;;;;5.20;3.57;;;;;;;11.23;92.48;98185.19;4109134;28;20651;-82
2023/12/29 01:51:12;;;;;;;5.07;3.90;;;;;;;11.19;91.26;98175.06;4106951;28;20638;-82
2023/12/29 01:53:20;;;;;;;3.80;3.13;;;;;;;11.17;92.04;98180.38;4109145;28;20635;-83
2023/12/29 01:55:41;;;;;;;4.63;3.60;;;;;;;11.20;91.05;98180.16;4091194;28;20659;-81
2023/12/29 01:57:48;;;;;;;4.50;3.57;;;;;;;11.16;91.42;98180.50;4089269;28;20708;-81
2023/12/29 01:59:54;;;;;;;5.00;3.40;;;;;;;11.14;90.88;98179.75;4106056;28;20692;-87
2023/12/29 02:01:59;;;;;;;3.80;3.33;;;;;;;11.18;92.68;98176.81;4111886;28;20608;-89
2023/12/29 02:04:07;;;;;;;4.43;3.10;;;;;;;11.21;90.62;98179.22;4124294;28;20615;-87
2023/12/29 02:06:16;;;;;;;4.10;3.23;;;;;;;11.26;90.55;98169.31;4095899;28;20658;-88
2023/12/29 02:08:23;;;;;;;4.23;3.30;;;;;;;11.27;91.51;98174.41;4090034;28;20640;-89
2023/12/29 02:10:30;;;;;;;4.40;3.60;;;;;;;11.27;90.10;98163.13;4105839;28;20636;-87
2023/12/29 02:12:54;;;;;;;4.23;3.40;;;;;;;11.28;90.23;98157.78;4110331;28;21280;-86
2023/12/29 02:15:00;;;;;;;4.93;3.67;;;;;;;11.29;91.62;98158.66;4122379;28;20988;-89
2023/12/29 02:17:11;;;;;;;6.07;3.83;;;;;;;11.15;90.23;98150.09;4110438;28;20612;-89
2023/12/29 02:19:38;;;;;;;4.60;3.70;;;;;;;11.16;89.86;98146.56;4109504;28;20602;-89
2023/12/29 02:22:17;;;;;;;5.63;3.20;;;;;;;11.16;90.13;98139.56;4109151;28;20643;-90
2023/12/29 02:24:23;;;;;;;6.33;3.43;;;;;;;11.18;90.85;98142.06;4106200;28;20711;-88
2023/12/29 02:26:30;;;;;;;7.00;4.47;;;;;;;11.13;90.27;98139.75;4106801;28;20621;-87
2023/12/29 02:28:40;;;;;;;6.10;3.70;;;;;;;11.13;91.05;98139.75;4111143;28;20627;-89
2023/12/29 02:30:57;;;;;;;6.20;3.40;;;;;;;11.09;91.65;98130.47;4112456;28;20723;-88
2023/12/29 02:33:03;;;;;;;5.70;3.40;;;;;;;11.08;90.47;98127.97;4112332;28;20632;-89
2023/12/29 02:35:10;;;;;;;5.03;3.40;;;;;;;11.09;91.66;98135.69;4095756;28;20668;-89
2023/12/29 02:37:35;;;;;;;4.30;3.53;;;;;;;11.06;91.94;98128.06;4120388;28;21172;-90
2023/12/29 02:40:00;;;;;;;4.97;3.73;;;;;;;11.06;90.78;98130.69;4110370;28;20691;-89
2023/12/29 02:42:25;;;;;;;4.73;3.73;;;;;;;11.05;91.76;98130.78;4106323;28;20623;-88
2023/12/29 02:44:48;;;;;;;5.00;3.60;;;;;;;11.03;90.00;98127.47;4106405;28;20608;-88
2023/12/29 02:47:21;;;;;;;4.13;3.73;;;;;;;11.04;90.93;98119.53;4096561;28;20631;-85
2023/12/29 02:49:30;;;;;;;4.77;3.80;;;;;;;11.06;91.32;98122.03;4094107;28;20648;-89
2023/12/29 02:51:45;;;;;;;4.90;3.80;;;;;;;11.07;90.30;98121.91;4093619;28;20693;-89
2023/12/29 02:53:48;;;;;;;4.13;3.73;;;;;;;11.03;92.45;98124.84;4118627;28;21223;-89
2023/12/29 02:55:51;;;;;;;5.20;4.10;;;;;;;10.96;90.71;98128.81;4087117;28;20695;-88
2023/12/29 02:57:56;;;;;;;5.60;3.47;;;;;;;10.95;91.20;98117.53;4106357;28;20652;-88
2023/12/29 02:59:58;;;;;;;4.80;3.60;;;;;;;10.95;91.46;98114.94;4090700;28;21257;-88
2023/12/29 03:02:11;;;;;;;4.40;3.80;;;;;;;10.95;92.47;98112.34;4110375;28;21504;-89
2023/12/29 03:04:13;;;;;;;5.00;4.07;;;;;;;10.96;92.40;98115.75;4126985;28;20635;-90
2023/12/29 03:06:16;;;;;;;5.60;3.80;;;;;;;10.96;93.14;98119.22;4108652;28;21006;-89
2023/12/29 03:08:20;;;;;;;4.50;3.60;;;;;;;10.97;92.25;98117.44;4110016;28;20711;-89
2023/12/29 03:10:23;;;;;;;5.70;4.50;;;;;;;10.94;93.18;98128.91;4109311;28;20700;-81
2023/12/29 03:12:25;;;;;;;5.63;3.97;;;;;;;10.94;93.25;98128.91;4091012;28;21241;-80
2023/12/29 03:14:31;;;;;;;5.20;4.17;;;;;;;10.93;91.81;98123.81;4124424;28;21071;-80
2023/12/29 03:16:46;;;;;;;4.83;4.00;;;;;;;10.96;93.10;98111.41;4093907;28;20638;-81
2023/12/29 03:18:50;;;;;;;5.37;4.10;;;;;;;10.98;92.53;98096.47;4107533;28;20648;-81
2023/12/29 03:20:53;;;;;;;4.83;4.07;;;;;;;10.99;91.33;98110.34;4110338;28;20710;-80
2023/12/29 03:22:57;;;;;;;5.50;4.00;;;;;;;10.96;91.06;98118.38;4106139;28;20627;-81
2023/12/29 03:24:59;;;;;;;5.70;4.83;;;;;;;10.98;92.21;98111.28;4089389;29;20744;-80
2023/12/29 03:27:15;;;;;;;5.37;4.30;;;;;;;10.99;91.04;98118.16;4104661;28;20723;-80
2023/12/29 03:29:17;;;;;;;6.17;3.90;;;;;;;10.98;91.75;98117.34;4119482;28;20734;-81
2023/12/29 03:31:22;;;;;;;4.57;4.07;;;;;;;11.02;92.77;98105.75;4109465;28;20712;-81
2023/12/29 03:33:25;;;;;;;4.33;3.77;;;;;;;10.99;92.10;98095.53;4110361;28;20633;-80
2023/12/29 03:35:29;;;;;;;7.03;4.47;;;;;;;11.00;91.39;98102.41;4110160;28;20712;-80
2023/12/29 03:38:00;;;;;;;7.33;4.30;;;;;;;10.99;92.70;98112.94;4105133;28;21055;-80
2023/12/29 03:40:03;;;;;;;5.20;3.73;;;;;;;10.93;91.54;98110.75;4109734;28;20624;-80
2023/12/29 03:42:06;;;;;;;6.13;3.77;;;;;;;10.93;92.49;98108.16;4108935;28;21199;-80
2023/12/29 03:44:09;;;;;;;4.53;4.03;;;;;;;10.92;93.05;98106.50;4117698;28;20627;-79
2023/12/29 03:46:18;;;;;;;5.10;4.20;;;;;;;10.94;93.20;98108.03;4108292;28;20722;-80
2023/12/29 03:48:29;;;;;;;4.33;3.67;;;;;;;10.93;92.51;98103.78;4107818;28;20655;-81
2023/12/29 03:50:33;;;;;;;5.80;4.33;;;;;;;10.92;92.76;98094.28;4092946;28;20624;-80
2023/12/29 03:52:35;;;;;;;4.43;3.80;;;;;;;10.91;92.66;98097.00;4097805;28;20715;-81
2023/12/29 03:54:39;;;;;;;4.53;3.60;;;;;;;10.85;93.17;98087.84;4110247;28;20654;-80
2023/12/29 03:56:42;;;;;;;6.83;5.10;;;;;;;10.86;93.98;98102.53;4109922;28;21025;-80
2023/12/29 03:58:46;;;;;;;6.13;4.50;;;;;;;10.89;94.67;98107.53;4087509;29;21512;-80
2023/12/29 04:00:50;;;;;;;5.70;3.70;;;;;;;10.85;93.79;98111.31;4108288;28;20653;-80
2023/12/29 04:02:53;;;;;;;7.67;4.60;;;;;;;10.85;94.42;98110.47;4121943;28;20638;-80
2023/12/29 04:05:01;;;;;;;5.47;4.40;;;;;;;10.84;94.09;98101.81;4108061;28;20641;-80
2023/12/29 04:07:10;;;;;;;5.00;4.17;;;;;;;10.82;95.50;98106.31;4109559;28;20995;-80
2023/12/29 04:09:13;;;;;;;5.70;4.50;;;;;;;10.83;94.37;98097.53;4091364;28;20728;-81
2023/12/29 04:11:18;;;;;;;5.27;4.10;;;;;;;10.84;93.66;98098.38;4121547;28;20615;-80
2023/12/29 04:13:21;;;;;;;7.33;4.67;;;;;;;10.83;94.88;98094.91;4123330;28;20658;-80
2023/12/29 04:15:24;;;;;;;7.97;4.20;;;;;;;10.80;94.30;98096.91;4088631;28;20719;-81
2023/12/29 04:17:28;;;;;;;5.50;4.07;;;;;;;10.81;95.53;98099.41;4102763;28;20665;-80
2023/12/29 04:19:30;;;;;;;5.00;4.03;;;;;;;10.83;96.34;98096.69;4110815;28;20628;-80
2023/12/29 04:21:34;;;;;;;5.80;4.27;;;;;;;10.85;95.28;98094.81;4105244;28;21347;-80
2023/12/29 04:23:39;;;;;;;6.40;4.27;;;;;;;10.82;95.90;98097.63;4106447;28;20641;-81
2023/12/29 04:25:42;;;;;;;5.53;4.03;;;;;;;10.78;95.95;98095.34;4106663;28;21226;-80
2023/12/29 04:27:45;;;;;;;6.23;4.90;;;;;;;10.80;96.23;98092.50;4106905;28;20620;-80
2023/12/29 04:29:48;;;;;;;4.83;4.30;;;;;;;10.80;95.27;98087.31;4105838;28;20648;-81
2023/12/29 04:31:52;;;;;;;5.07;3.90;;;;;;;10.78;96.41;98100.56;4091239;28;21084;-79
2023/12/29 04:33:55;;;;;;;4.83;3.80;;;;;;;10.79;96.29;98104.84;4122741;28;20726;-82
2023/12/29 04:35:59;;;;;;;4.73;3.73;;;;;;;10.80;96.64;98108.16;4123683;28;20686;-81
2023/12/29 04:38:04;;;;;;;4.80;4.13;;;;;;;10.79;95.95;98099.63;4108071;28;20632;-80
2023/12/29 04:40:07;;;;;;;5.60;3.83;;;;;;;10.80;95.96;98102.94;4107190;28;20775;-80
2023/12/29 04:42:11;;;;;;;4.57;3.70;;;;;;;10.82;97.27;98095.88;4100008;28;21297;-79
2023/12/29 04:44:13;;;;;;;5.23;4.00;;;;;;;10.84;96.96;98099.19;4106764;28;20763;-81
2023/12/29 04:46:17;;;;;;;6.90;4.40;;;;;;;10.84;95.85;98109.63;4106715;28;20632;-82
2023/12/29 04:48:20;;;;;;;4.10;3.70;;;;;;;10.85;96.37;98108.72;4109697;28;20616;-80
2023/12/29 04:50:22;;;;;;;4.80;3.50;;;;;;;10.85;96.52;98110.47;4109260;28;21283;-81
2023/12/29 04:52:26;;;;;;;4.87;3.90;;;;;;;10.82;96.13;98121.97;4105234;28;20639;-80
2023/12/29 04:54:30;;;;;;;6.23;3.77;;;;;;;10.83;96.94;98118.41;4107956;28;20647;-80
2023/12/29 04:56:33;;;;;;;5.43;4.33;;;;;;;10.81;96.63;98120.28;4108614;28;20631;-80
2023/12/29 04:58:36;;;;;;;5.23;4.30;;;;;;;10.83;97.51;98121.00;4108468;28;20640;-79
2023/12/29 05:00:40;;;;;;;4.70;3.70;;;;;;;10.84;96.91;98117.47;4094089;28;20655;-80
2023/12/29 05:02:42;;;;;;;6.63;4.07;;;;;;;10.85;97.13;98124.38;4109067;28;21026;-81
2023/12/29 05:04:45;;;;;;;5.73;3.90;;;;;;;10.86;98.54;98118.19;4109577;28;20628;-82
2023/12/29 05:06:49;;;;;;;5.87;4.00;;;;;;;10.85;96.91;98118.28;4105638;28;20615;-81
2023/12/29 05:08:52;;;;;;;5.40;3.87;;;;;;;10.87;97.81;98116.44;4106886;28;20620;-80
2023/12/29 05:10:56;;;;;;;5.73;3.90;;;;;;;10.92;96.61;98109.94;4109112;28;21326;-80
2023/12/29 05:13:00;;;;;;;5.50;3.43;;;;;;;10.89;98.27;98120.59;4107715;28;20624;-81
2023/12/29 05:15:03;;;;;;;5.03;3.40;;;;;;;10.91;98.69;98121.28;4105932;28;20609;-80
2023/12/29 05:17:15;;;;;;;4.33;3.43;;;;;;;10.94;97.87;98118.47;4124087;28;20635;-80
2023/12/29 05:19:19;;;;;;;5.03;3.60;;;;;;;11.01;98.51;98122.34;4107891;28;21248;-80
2023/12/29 05:21:21;;;;;;;3.80;3.10;;;;;;;11.08;96.58;98121.00;4108332;28;20756;-80
2023/12/29 05:23:25;;;;;;;3.90;3.07;;;;;;;11.12;98.37;98119.81;4110264;28;20698;-80
2023/12/29 05:25:28;;;;;;;4.43;3.57;;;;;;;11.17;98.06;98128.19;4109474;28;21023;-80
2023/12/29 05:27:44;;;;;;;5.53;3.53;;;;;;;11.23;96.83;98126.91;4106890;28;20639;-80
2023/12/29 05:29:47;;;;;;;4.57;3.60;;;;;;;11.24;96.38;98123.34;4108304;28;20639;-88
2023/12/29 05:31:51;;;;;;;4.07;3.27;;;;;;;11.25;98.34;98123.25;4106333;28;20675;-89
2023/12/29 05:33:55;;;;;;;4.10;3.10;;;;;;;11.26;97.76;98130.16;4107764;28;21217;-86
2023/12/29 05:35:57;;;;;;;5.90;3.90;;;;;;;11.29;97.86;98137.75;4112586;28;20627;-86
2023/12/29 05:38:00;;;;;;;4.80;3.33;;;;;;;11.29;99.00;98132.53;4105476;28;20643;-89
2023/12/29 05:40:05;;;;;;;3.90;3.20;;;;;;;11.30;97.13;98134.19;4106927;28;20615;-87
2023/12/29 05:42:07;;;;;;;5.80;3.43;;;;;;;11.31;97.72;98125.41;4110124;28;21237;-87
2023/12/29 05:44:12;;;;;;;4.57;3.30;;;;;;;11.31;98.54;98123.63;4110289;28;20660;-88
2023/12/29 05:46:15;;;;;;;4.00;3.60;;;;;;;11.32;97.39;98127.06;4109113;28;20726;-90
2023/12/29 05:48:17;;;;;;;4.77;3.77;;;;;;;11.33;98.95;98123.53;4094746;28;20661;-87
2023/12/29 05:50:21;;;;;;;5.10;3.00;;;;;;;11.34;98.63;98125.22;4111872;28;20679;-84
2023/12/29 05:52:23;;;;;;;4.53;3.50;;;;;;;11.35;99.91;98126.84;4106835;28;20666;-86
2023/12/29 05:54:27;;;;;;;4.20;3.10;;;;;;;11.36;100.00;98131.97;4110280;28;20679;-88
2023/12/29 05:56:29;;;;;;;4.53;3.20;;;;;;;11.39;98.14;98133.53;4107255;28;20628;-90
2023/12/29 05:58:32;;;;;;;3.80;3.20;;;;;;;11.37;99.42;98125.81;4109994;28;20643;-88
2023/12/29 06:00:38;;;;;;;5.80;3.40;;;;;;;11.38;99.17;98135.31;4112465;28;20730;-89
2023/12/29 06:02:42;;;;;;;4.43;3.37;;;;;;;11.37;99.67;98125.00;4089785;28;20685;-88
2023/12/29 06:04:45;;;;;;;4.50;3.50;;;;;;;11.37;99.12;98125.81;4110458;28;20706;-88
2023/12/29 06:06:49;;;;;;;4.20;3.53;;;;;;;11.36;97.83;98124.13;4112355;28;20648;-89
2023/12/29 06:09:30;;;;;;;5.00;3.60;;;;;;;11.34;99.31;98125.22;4111535;28;21169;-89
2023/12/29 06:11:34;;;;;;;5.23;3.60;;;;;;;11.31;98.25;98122.81;4112319;28;20631;-88
2023/12/29 06:13:36;;;;;;;4.70;3.23;;;;;;;11.29;98.13;98130.75;4110827;28;20624;-87
2023/12/29 06:15:41;;;;;;;4.70;3.87;;;;;;;11.31;99.43;98138.47;4112806;28;20638;-89
2023/12/29 06:17:45;;;;;;;4.07;3.50;;;;;;;11.33;98.74;98139.19;4112940;28;20632;-87
2023/12/29 06:19:48;;;;;;;8.27;4.03;;;;;;;11.34;99.15;98146.09;4095020;28;21279;-89
2023/12/29 06:21:51;;;;;;;5.03;3.60;;;;;;;11.37;98.39;98143.28;4108834;28;20751;-88
2023/12/29 06:23:54;;;;;;;5.30;3.83;;;;;;;11.35;99.76;98143.38;4108645;28;20671;-87
2023/12/29 06:25:58;;;;;;;5.17;3.97;;;;;;;11.37;99.98;98140.66;4112241;28;20666;-88
2023/12/29 06:28:00;;;;;;;4.80;3.57;;;;;;;11.37;98.57;98136.25;4110868;28;21024;-87
2023/12/29 06:30:05;;;;;;;5.17;3.60;;;;;;;11.35;98.53;98129.47;4110997;28;20631;-85
2023/12/29 06:32:10;;;;;;;4.40;3.67;;;;;;;11.31;99.50;98133.25;4107882;28;20612;-89
2023/12/29 06:34:14;;;;;;;4.50;3.60;;;;;;;11.28;100.00;98130.84;4111222;28;20636;-90
2023/12/29 06:36:17;;;;;;;5.10;3.80;;;;;;;11.25;100.00;98125.03;4109919;28;20958;-85
2023/12/29 06:38:21;;;;;;;5.57;4.00;;;;;;;11.23;100.00;98125.13;4107744;28;20627;-89
2023/12/29 06:40:25;;;;;;;5.43;4.17;;;;;;;11.19;99.59;98128.06;4105419;28;20647;-80
2023/12/29 06:42:56;;;;;;;5.73;4.00;;;;;;;11.16;98.75;98121.28;4105151;28;20666;-80
2023/12/29 06:44:59;;;;;;;4.20;3.73;;;;;;;11.14;99.95;98131.00;4109093;28;20604;-80
2023/12/29 06:47:18;;;;;;;4.70;3.90;;;;;;;11.11;100.00;98128.59;4093464;28;20663;-80
2023/12/29 06:49:22;;;;;;;6.33;3.93;;;;;;;11.09;99.35;98122.63;4112021;28;20615;-79
2023/12/29 06:51:26;;;;;;;5.40;4.07;;;;;;;11.07;98.78;98118.47;4108754;28;20620;-81
2023/12/29 06:53:29;;;;;;;5.93;4.00;;;;;;;11.07;99.89;98118.47;4109992;28;20647;-80
2023/12/29 06:55:32;;;;;;;4.30;3.90;;;;;;;11.04;98.72;98110.88;4088277;28;20636;-80
2023/12/29 06:57:36;;;;;;;4.70;4.00;;;;;;;11.02;99.69;98102.28;4108236;28;20662;-81
2023/12/29 06:59:38;;;;;;;5.70;4.23;;;;;;;11.00;99.79;98097.19;4109976;28;20632;-80
2023/12/29 07:01:59;;;;;;;5.57;4.73;;;;;;;11.01;98.57;98096.25;4125245;28;20647;-81
2023/12/29 07:04:04;;;;;;;5.60;4.10;;;;;;;10.93;99.05;98106.41;4109383;28;20656;-80
2023/12/29 07:06:08;;;;;;;6.07;4.10;;;;;;;10.90;99.93;98109.22;4093287;28;20998;-81
2023/12/29 07:08:14;;;;;;;5.43;3.83;;;;;;;10.86;99.25;98112.97;4095653;28;21417;-80
2023/12/29 07:10:17;;;;;;;5.33;3.87;;;;;;;10.81;99.48;98120.28;4108543;28;20632;-80
2023/12/29 07:12:20;;;;;;;5.20;4.03;;;;;;;10.77;99.66;98127.59;4107757;28;20651;-81
2023/12/29 07:14:23;;;;;;;4.60;3.90;;;;;;;10.76;99.23;98120.69;4102344;28;20624;-80
2023/12/29 07:16:27;;;;;;;5.67;4.87;;;;;;;10.79;98.76;98125.72;4088761;28;20743;-81
2023/12/29 07:18:30;;;;;;;5.90;3.87;;;;;;;10.77;99.30;98117.16;4108913;28;20761;-81
2023/12/29 07:20:34;;;;;;;6.90;4.33;;;;;;;10.77;98.17;98119.78;4109087;28;20694;-80
2023/12/29 07:22:38;;;;;;;6.40;4.67;;;;;;;10.78;98.86;98118.81;4112837;28;20626;-81
2023/12/29 07:24:43;;;;;;;6.20;4.73;;;;;;;10.77;98.03;98122.38;4095448;28;20640;-81
2023/12/29 07:26:46;;;;;;;7.30;5.33;;;;;;;10.77;98.25;98131.03;4096048;28;20636;-80
2023/12/29 07:28:53;;;;;;;5.13;3.93;;;;;;;10.77;98.95;98117.16;4111163;28;20682;-80
2023/12/29 07:30:57;;;;;;;6.30;4.30;;;;;;;10.76;97.92;98118.09;4111895;28;20620;-81
2023/12/29 07:33:00;;;;;;;14.67;10.47;;;;;;;10.77;98.16;98118.00;4112557;28;20652;-82
2023/12/29 07:35:04;;;;;;;16.07;10.13;;;;;;;10.79;98.08;98115.28;4112851;28;21058;-80
2023/12/29 07:37:09;;;;;;;18.97;16.13;;;;;;;10.80;99.65;98108.16;4108877;28;21221;-80
2023/12/29 07:39:11;;;;;;;24.10;19.20;;;;;;;10.82;99.96;98108.91;4109968;28;20635;-82
2023/12/29 07:41:15;;;;;;;23.23;15.77;;;;;;;10.83;99.29;98107.97;4093954;28;20660;-81
2023/12/29 07:43:18;;;;;;;10.43;8.40;;;;;;;10.82;98.33;98106.31;4103604;28;20724;-80
2023/12/29 07:45:21;;;;;;;4.83;4.00;;;;;;;10.79;98.76;98107.44;4103886;28;21090;-81
2023/12/29 07:47:24;;;;;;;5.73;4.40;;;;;;;10.80;98.84;98108.16;4120990;28;20742;-80
2023/12/29 07:49:28;;;;;;;6.90;4.83;;;;;;;10.82;99.67;98113.28;4102516;28;20939;-80
2023/12/29 07:51:31;;;;;;;7.20;5.87;;;;;;;10.85;100.00;98108.72;4103709;28;20655;-80
2023/12/29 07:53:36;;;;;;;7.07;5.07;;;;;;;10.91;99.02;98104.81;4104020;28;20839;-83
2023/12/29 07:55:40;;;;;;;6.90;5.40;;;;;;;10.95;100.00;98117.53;4121723;28;20645;-80
2023/12/29 07:57:43;;;;;;;8.63;6.10;;;;;;;11.00;100.00;98107.63;4107814;28;20663;-80
2023/12/29 07:59:47;;;;;;;14.97;10.17;;;;;;;11.02;99.14;98116.19;4107633;28;20620;-80
2023/12/29 08:01:50;;;;;;;16.37;11.53;;;;;;;11.04;99.67;98116.91;4088976;28;20659;-80
2023/12/29 08:03:55;;;;;;;10.47;8.17;;;;;;;11.04;99.17;98116.91;4125315;28;21319;-81
2023/12/29 08:05:58;;;;;;;13.20;9.90;;;;;;;11.07;99.69;98121.91;4110614;28;20620;-79
2023/12/29 08:08:02;;;;;;;13.43;10.83;;;;;;;11.05;100.00;98117.72;4110919;28;20644;-80
2023/12/29 08:10:08;;;;;;;11.33;8.80;;;;;;;11.07;100.00;98115.88;4110252;28;20635;-80
2023/12/29 08:12:13;;;;;;;10.70;8.77;;;;;;;11.11;99.69;98118.16;4092103;28;20613;-81
2023/12/29 08:14:17;;;;;;;7.80;6.57;;;;;;;11.12;99.75;98126.81;4111087;28;21179;-81
2023/12/29 08:16:20;;;;;;;9.73;8.60;;;;;;;11.11;100.00;98120.78;4109831;28;20635;-82
2023/12/29 08:18:22;;;;;;;9.17;7.57;;;;;;;11.10;100.00;98126.94;4107334;28;21044;-81
2023/12/29 08:20:26;;;;;;;7.73;6.20;;;;;;;11.12;100.00;98127.66;4105259;28;20751;-80
2023/12/29 08:22:32;;;;;;;7.40;5.70;;;;;;;11.12;100.00;98125.03;4110079;28;20634;-78
2023/12/29 08:24:35;;;;;;;7.57;6.07;;;;;;;11.17;100.00;98125.56;4108572;28;20713;-79
2023/12/29 08:26:48;;;;;;;11.60;10.27;;;;;;;11.23;100.00;98130.34;4105812;28;20624;-79
2023/12/29 08:28:52;;;;;;;8.80;7.40;;;;;;;11.23;100.00;98129.50;4103392;28;20613;-83
2023/12/29 08:30:55;;;;;;;9.00;7.80;;;;;;;11.26;100.00;98134.50;4125484;28;20634;-81
2023/12/29 08:32:58;;;;;;;14.50;10.63;;;;;;;11.26;99.70;98130.16;4088807;28;20621;-80
2023/12/29 08:35:02;;;;;;;7.87;6.17;;;;;;;11.27;99.23;98137.00;4110724;28;20658;-81
2023/12/29 08:37:19;;;;;;;4.60;3.40;;;;;;;11.22;99.31;98136.50;4108590;28;20647;-80
2023/12/29 08:39:24;;;;;;;4.10;2.93;;;;;;;11.24;100.00;98133.78;4121444;28;20611;-80
2023/12/29 08:41:28;;;;;;;3.90;2.93;;;;;;;11.22;100.00;98133.91;4110398;28;20686;-80
2023/12/29 08:43:35;;;;;;;3.53;2.73;;;;;;;11.22;100.00;98136.50;4107237;28;20703;-81
2023/12/29 08:45:38;;;;;;;4.70;3.53;;;;;;;11.20;100.00;98135.78;4110639;28;21253;-80
2023/12/29 08:47:42;;;;;;;4.30;2.87;;;;;;;11.21;100.00;98134.84;4094820;28;20621;-81
2023/12/29 08:49:48;;;;;;;3.93;2.83;;;;;;;11.21;100.00;98137.44;4126181;28;21482;-80
2023/12/29 08:51:52;;;;;;;4.40;2.77;;;;;;;11.11;100.00;98133.81;4110441;28;20737;-79
2023/12/29 08:53:55;;;;;;;3.40;2.90;;;;;;;11.13;100.00;98137.16;4105345;28;20671;-80
2023/12/29 08:55:57;;;;;;;3.80;2.77;;;;;;;11.08;100.00;98136.66;4105727;28;21163;-80
2023/12/29 08:58:01;;;;;;;4.37;2.90;;;;;;;11.09;100.00;98146.13;4108388;28;20721;-79
2023/12/29 09:00:09;;;;;;;5.77;3.43;;;;;;;11.09;100.00;98147.91;4108263;28;21007;-86
2023/12/29 09:02:12;;;;;;;4.77;3.00;;;;;;;11.08;100.00;98146.22;4106530;28;21518;-86
2023/12/29 09:04:16;;;;;;;6.13;4.37;;;;;;;11.08;100.00;98143.63;4106557;28;20660;-86
2023/12/29 09:06:20;;;;;;;5.03;3.60;;;;;;;11.03;100.00;98146.53;4105289;28;20730;-88
2023/12/29 09:08:23;;;;;;;6.37;3.10;;;;;;;11.06;100.00;98145.50;4101817;28;20667;-85
2023/12/29 09:10:27;;;;;;;5.53;2.97;;;;;;;11.09;100.00;98138.28;4104286;28;20638;-86
2023/12/29 09:12:30;;;;;;;3.80;2.90;;;;;;;11.08;100.00;98148.84;4105904;28;20634;-82
2023/12/29 09:14:34;;;;;;;3.83;3.00;;;;;;;11.03;100.00;98141.34;4106982;28;20631;-86
2023/12/29 09:16:42;;;;;;;4.07;2.70;;;;;;;11.06;100.00;98146.34;4086378;28;20625;-86
2023/12/29 09:18:47;;;;;;;3.50;2.80;;;;;;;11.09;100.00;98150.53;4103036;28;20636;-85
2023/12/29 09:20:50;;;;;;;4.27;2.87;;;;;;;11.08;100.00;98141.88;4116806;28;20703;-86
2023/12/29 09:22:54;;;;;;;3.67;2.70;;;;;;;11.08;100.00;98146.22;4122128;28;21193;-87
2023/12/29 09:24:57;;;;;;;3.67;2.90;;;;;;;11.06;100.00;98148.94;4106084;28;20659;-90
2023/12/29 09:27:01;;;;;;;3.23;2.50;;;;;;;11.10;100.00;98153.03;4114990;28;20657;-88
2023/12/29 09:29:04;;;;;;;5.00;2.83;;;;;;;11.14;100.00;98148.41;4106747;28;21053;-90
2023/12/29 09:31:06;;;;;;;4.20;3.10;;;;;;;11.19;100.00;98156.78;4110040;28;21202;-90
2023/12/29 09:33:12;;;;;;;4.00;2.80;;;;;;;11.21;100.00;98154.91;4108145;28;20719;-91
2023/12/29 09:35:17;;;;;;;6.73;2.60;;;;;;;11.31;100.00;98161.97;4104328;28;20719;-91
2023/12/29 09:37:20;;;;;;;5.90;3.90;;;;;;;11.34;100.00;98161.75;4108112;28;20620;-90
2023/12/29 09:39:24;;;;;;;4.63;3.50;;;;;;;11.33;100.00;98155.69;4107139;28;20620;-90
2023/12/29 09:41:45;;;;;;;3.57;2.70;;;;;;;11.31;100.00;98162.81;4117171;28;20742;-90
2023/12/29 09:43:48;;;;;;;4.10;3.03;;;;;;;11.32;100.00;98158.41;4088946;28;20632;-85
2023/12/29 09:45:53;;;;;;;4.00;3.03;;;;;;;11.32;100.00;98166.22;4099977;28;20691;-90
2023/12/29 09:47:58;;;;;;;3.63;2.73;;;;;;;11.27;100.00;98163.13;4088842;28;20725;-89
2023/12/29 09:50:03;;;;;;;3.33;2.67;;;;;;;11.34;100.00;98177.44;4108351;28;20695;-89
2023/12/29 09:52:08;;;;;;;3.50;2.83;;;;;;;11.38;100.00;98179.72;4102566;28;20763;-88
2023/12/29 09:54:13;;;;;;;3.43;2.63;;;;;;;11.44;100.00;98178.44;4105991;28;20631;-91
2023/12/29 09:56:17;;;;;;;4.03;2.73;;;;;;;11.46;100.00;98181.78;4101578;28;20624;-91